Time;durP1;ratioP1;P1;durP2;ratioP2;P2;SDS_P1;SDS_P2;PMS_P1;PMS_P2;Temp;Humidity;BMP_temperature;BMP_pressure;BME280_temperature;BME280_humidity;BME280_pressure;Samples;Min_cycle;Max_cycle;Signal;HPM_P1;HPM_P2
2023/07/13 00:01:30;;;;;;;6.43;1.20;;;17.30;99.90;;;;;;4975859;28;20046;-35
2023/07/13 00:03:57;;;;;;;5.35;1.13;;;17.30;99.90;;;;;;4989456;28;20092;-35
2023/07/13 00:06:23;;;;;;;8.98;1.55;;;17.30;99.90;;;;;;4988894;28;21379;-35
2023/07/13 00:08:49;;;;;;;6.22;1.10;;;17.30;99.90;;;;;;4976315;28;20042;-35
2023/07/13 00:11:16;;;;;;;4.13;0.93;;;17.30;99.90;;;;;;4989188;28;20496;-35
2023/07/13 00:13:43;;;;;;;5.75;1.30;;;17.20;99.90;;;;;;4991493;28;20407;-35
2023/07/13 00:16:10;;;;;;;3.17;0.98;;;17.20;99.90;;;;;;4981797;28;20069;-35
2023/07/13 00:18:37;;;;;;;4.47;0.90;;;17.10;99.90;;;;;;4989915;28;20140;-36
2023/07/13 00:21:06;;;;;;;5.82;1.30;;;17.10;99.90;;;;;;4969605;28;21857;-35
2023/07/13 00:23:36;;;;;;;3.65;1.00;;;17.00;99.90;;;;;;4984993;28;20054;-34
2023/07/13 00:26:04;;;;;;;5.18;0.90;;;16.90;99.90;;;;;;4987935;28;20515;-35
2023/07/13 00:28:30;;;;;;;5.40;1.48;;;16.90;99.90;;;;;;4984364;28;21665;-34
2023/07/13 00:30:56;;;;;;;5.90;1.23;;;16.90;99.90;;;;;;4979092;28;20792;-35
2023/07/13 00:33:22;;;;;;;7.18;1.17;;;16.90;99.90;;;;;;4981612;28;20356;-44
2023/07/13 00:35:49;;;;;;;5.72;0.90;;;16.80;99.90;;;;;;4999093;28;20049;-36
2023/07/13 00:38:15;;;;;;;5.78;1.10;;;16.80;99.90;;;;;;4988451;28;20057;-35
2023/07/13 00:40:41;;;;;;;7.53;1.08;;;16.70;99.90;;;;;;4983990;28;20466;-35
2023/07/13 00:43:17;;;;;;;4.57;1.10;;;16.70;99.90;;;;;;4998704;28;20132;-34
2023/07/13 00:45:42;;;;;;;6.68;1.45;;;16.80;99.90;;;;;;4995031;28;20744;-34
2023/07/13 00:48:09;;;;;;;7.38;1.10;;;16.80;99.90;;;;;;4985009;28;20799;-35
2023/07/13 00:50:35;;;;;;;4.35;1.33;;;16.70;99.90;;;;;;4993695;28;20041;-34
2023/07/13 00:53:02;;;;;;;4.30;1.20;;;16.70;99.90;;;;;;4986217;28;20119;-35
2023/07/13 00:55:28;;;;;;;3.97;1.00;;;16.60;99.90;;;;;;4984896;28;20082;-34
2023/07/13 00:57:54;;;;;;;5.45;1.30;;;16.60;99.90;;;;;;4972938;28;20152;-34
2023/07/13 01:00:22;;;;;;;5.82;1.42;;;16.70;99.90;;;;;;4986523;28;20099;-34
2023/07/13 01:02:49;;;;;;;7.90;1.23;;;16.60;99.90;;;;;;4987768;28;20053;-34
2023/07/13 01:05:17;;;;;;;3.03;1.00;;;16.60;99.90;;;;;;4984937;28;20149;-35
2023/07/13 01:07:44;;;;;;;4.50;0.90;;;16.60;99.90;;;;;;4977620;28;20057;-35
2023/07/13 01:10:12;;;;;;;8.95;1.38;;;16.60;99.90;;;;;;4971801;28;20515;-34
2023/07/13 01:12:38;;;;;;;6.43;2.42;;;16.60;99.90;;;;;;4985229;28;20056;-34
2023/07/13 01:15:05;;;;;;;6.65;1.10;;;16.60;99.90;;;;;;4976290;28;20054;-35
2023/07/13 01:17:33;;;;;;;4.63;1.27;;;16.60;99.90;;;;;;4982422;28;20481;-34
2023/07/13 01:19:59;;;;;;;5.72;1.10;;;16.60;99.90;;;;;;4986293;28;20057;-35
2023/07/13 01:22:26;;;;;;;6.50;1.23;;;16.60;99.90;;;;;;4994862;28;20050;-34
2023/07/13 01:24:53;;;;;;;7.15;1.10;;;16.50;99.90;;;;;;4968339;28;20077;-35
2023/07/13 01:27:25;;;;;;;6.15;1.23;;;16.40;99.90;;;;;;4983196;28;20058;-33
2023/07/13 01:29:52;;;;;;;4.70;1.75;;;16.40;99.90;;;;;;4975985;28;20055;-35
2023/07/13 01:32:23;;;;;;;7.65;1.00;;;16.40;99.90;;;;;;4988605;28;20080;-34
2023/07/13 01:34:54;;;;;;;6.07;1.38;;;16.30;99.90;;;;;;4968586;28;20054;-35
2023/07/13 01:37:20;;;;;;;5.47;1.15;;;16.30;99.90;;;;;;4986369;28;20052;-36
2023/07/13 01:39:46;;;;;;;3.33;0.90;;;16.30;99.90;;;;;;4983054;28;20046;-34
2023/07/13 01:42:13;;;;;;;5.50;1.40;;;16.20;99.90;;;;;;4976316;28;20053;-34
2023/07/13 01:44:38;;;;;;;6.60;1.20;;;16.20;99.90;;;;;;4984217;28;20081;-34
2023/07/13 01:47:05;;;;;;;4.32;1.00;;;16.20;99.90;;;;;;4975498;28;20149;-34
2023/07/13 01:49:30;;;;;;;5.95;1.40;;;16.10;99.90;;;;;;4986014;28;20050;-34
2023/07/13 01:51:56;;;;;;;4.82;0.93;;;16.10;99.90;;;;;;4983808;28;20057;-34
2023/07/13 01:54:22;;;;;;;3.92;1.10;;;16.10;99.90;;;;;;4968681;28;20149;-34
2023/07/13 01:56:48;;;;;;;4.47;1.00;;;16.10;99.90;;;;;;4978871;28;20117;-34
2023/07/13 01:59:13;;;;;;;6.03;1.10;;;16.10;99.90;;;;;;4979392;28;20496;-34
2023/07/13 02:01:39;;;;;;;6.13;1.35;;;16.00;99.90;;;;;;4987658;28;20050;-35
2023/07/13 02:04:05;;;;;;;6.13;1.50;;;16.00;99.90;;;;;;4994963;28;20050;-34
2023/07/13 02:06:31;;;;;;;4.07;1.00;;;16.00;99.90;;;;;;4980375;28;21044;-34
2023/07/13 02:08:58;;;;;;;9.68;1.58;;;16.00;99.90;;;;;;4987362;28;20045;-35
2023/07/13 02:11:24;;;;;;;4.63;1.00;;;16.00;99.90;;;;;;4973563;28;20050;-34
2023/07/13 02:13:51;;;;;;;7.13;1.20;;;16.00;99.90;;;;;;4981974;28;20060;-34
2023/07/13 02:16:16;;;;;;;4.55;0.80;;;16.00;99.90;;;;;;4986558;28;20048;-34
2023/07/13 02:18:42;;;;;;;7.43;1.17;;;15.90;99.90;;;;;;5001059;28;20041;-34
2023/07/13 02:21:08;;;;;;;10.52;1.35;;;15.90;99.90;;;;;;4984863;28;20062;-33
2023/07/13 02:23:33;;;;;;;6.57;1.08;;;15.90;99.90;;;;;;4984825;28;20051;-34
2023/07/13 02:26:02;;;;;;;9.50;1.95;;;15.90;99.90;;;;;;4991273;28;20048;-34
2023/07/13 02:28:28;;;;;;;4.03;0.95;;;15.80;99.90;;;;;;4981078;28;20054;-33
2023/07/13 02:30:54;;;;;;;6.45;1.60;;;15.80;99.90;;;;;;4971257;28;20054;-34
2023/07/13 02:33:19;;;;;;;5.28;1.48;;;15.80;99.90;;;;;;4986376;28;20440;-35
2023/07/13 02:35:45;;;;;;;6.97;1.55;;;15.80;99.90;;;;;;4981065;28;20062;-36
2023/07/13 02:38:11;;;;;;;5.18;1.15;;;15.70;99.90;;;;;;4976353;28;20088;-34
2023/07/13 02:40:38;;;;;;;4.93;1.40;;;15.70;99.90;;;;;;4983071;28;20069;-34
2023/07/13 02:43:03;;;;;;;6.60;1.27;;;15.70;99.90;;;;;;4981410;28;20578;-35
2023/07/13 02:45:29;;;;;;;5.35;1.00;;;15.70;99.90;;;;;;4983238;28;20058;-35
2023/07/13 02:47:55;;;;;;;6.43;1.30;;;15.60;99.90;;;;;;4983284;28;20061;-34
2023/07/13 02:50:21;;;;;;;10.57;1.40;;;15.70;99.90;;;;;;4979849;28;20179;-34
2023/07/13 02:52:47;;;;;;;5.20;1.05;;;15.60;99.90;;;;;;4983142;28;20452;-34
2023/07/13 02:55:12;;;;;;;5.43;1.20;;;15.70;99.90;;;;;;4986664;28;20064;-35
2023/07/13 02:57:38;;;;;;;8.13;1.67;;;15.70;99.90;;;;;;4987930;28;20500;-34
2023/07/13 03:00:05;;;;;;;9.02;1.40;;;15.70;99.90;;;;;;4976828;28;20069;-34
2023/07/13 03:02:32;;;;;;;5.88;1.58;;;15.70;99.90;;;;;;4978810;28;20049;-34
2023/07/13 03:04:58;;;;;;;6.10;1.20;;;15.60;99.90;;;;;;4976294;28;20128;-34
2023/07/13 03:07:25;;;;;;;9.05;1.52;;;15.70;99.90;;;;;;4983335;28;20066;-36
2023/07/13 03:09:56;;;;;;;10.73;1.85;;;15.70;99.90;;;;;;4980064;28;20049;-35
2023/07/13 03:12:22;;;;;;;6.03;1.27;;;15.70;99.90;;;;;;4971628;28;20046;-34
2023/07/13 03:14:47;;;;;;;5.25;1.33;;;15.70;99.90;;;;;;4981242;28;20506;-35
2023/07/13 03:17:13;;;;;;;6.53;1.77;;;15.70;99.90;;;;;;4979005;28;20062;-33
2023/07/13 03:19:39;;;;;;;4.88;1.20;;;15.60;99.90;;;;;;4974070;28;20081;-35
2023/07/13 03:22:05;;;;;;;7.93;1.88;;;15.60;99.90;;;;;;4984451;28;20057;-35
2023/07/13 03:24:33;;;;;;;4.88;1.17;;;15.60;99.90;;;;;;4977907;28;20076;-34
2023/07/13 03:26:59;;;;;;;5.93;1.13;;;15.60;99.90;;;;;;4965783;28;20076;-34
2023/07/13 03:29:24;;;;;;;5.32;1.40;;;15.60;99.90;;;;;;4972722;28;20495;-34
2023/07/13 03:31:50;;;;;;;7.55;1.65;;;15.60;99.90;;;;;;4986668;28;20196;-34
2023/07/13 03:34:16;;;;;;;4.50;1.23;;;15.50;99.90;;;;;;4981726;28;20751;-34
2023/07/13 03:36:41;;;;;;;4.43;0.90;;;15.50;99.90;;;;;;4975638;28;20049;-34
2023/07/13 03:39:08;;;;;;;5.13;1.20;;;15.50;99.90;;;;;;4963604;28;20054;-33
2023/07/13 03:41:34;;;;;;;5.70;1.38;;;15.50;99.90;;;;;;4978469;28;20053;-34
2023/07/13 03:44:00;;;;;;;4.82;1.45;;;15.40;99.90;;;;;;4988205;28;20443;-34
2023/07/13 03:46:26;;;;;;;8.00;1.60;;;15.40;99.90;;;;;;4986888;28;20089;-35
2023/07/13 03:48:51;;;;;;;4.15;1.05;;;15.40;99.90;;;;;;4973658;28;20416;-35
2023/07/13 03:51:18;;;;;;;8.82;1.27;;;15.40;99.90;;;;;;4993840;28;20080;-34
2023/07/13 03:53:45;;;;;;;11.05;1.40;;;15.30;99.90;;;;;;4982468;28;20070;-35
2023/07/13 03:56:14;;;;;;;8.60;1.85;;;15.30;99.90;;;;;;4977020;28;20058;-34
2023/07/13 03:58:41;;;;;;;5.43;1.42;;;15.30;99.90;;;;;;4984653;28;20176;-35
2023/07/13 04:01:09;;;;;;;8.73;1.50;;;15.30;99.90;;;;;;4989931;28;20050;-35
2023/07/13 04:03:35;;;;;;;5.63;1.30;;;15.30;99.90;;;;;;4987842;28;20057;-35
2023/07/13 04:06:04;;;;;;;6.03;1.40;;;15.20;99.90;;;;;;4985504;28;20053;-35
2023/07/13 04:08:36;;;;;;;5.28;1.27;;;15.20;99.90;;;;;;4977562;28;20058;-34
2023/07/13 04:11:03;;;;;;;5.20;1.42;;;15.20;99.90;;;;;;4982258;28;20419;-34
2023/07/13 04:13:29;;;;;;;7.13;1.35;;;15.20;99.90;;;;;;4995872;28;21374;-34
2023/07/13 04:15:55;;;;;;;7.22;1.40;;;15.20;99.90;;;;;;4982930;28;20062;-34
2023/07/13 04:18:22;;;;;;;9.88;1.70;;;15.20;99.90;;;;;;4982743;28;20413;-35
2023/07/13 04:20:49;;;;;;;7.15;1.30;;;15.20;99.90;;;;;;4988343;28;20069;-35
2023/07/13 04:23:15;;;;;;;9.38;1.75;;;15.20;99.90;;;;;;4990321;28;20393;-34
2023/07/13 04:25:49;;;;;;;3.60;1.13;;;15.20;99.90;;;;;;4982902;28;20054;-34
2023/07/13 04:28:17;;;;;;;7.90;1.50;;;15.30;99.90;;;;;;4987230;28;20050;-35
2023/07/13 04:30:43;;;;;;;5.30;1.45;;;15.30;99.90;;;;;;4973910;28;20548;-34
2023/07/13 04:33:08;;;;;;;4.82;1.27;;;15.30;99.90;;;;;;4980410;28;20150;-34
2023/07/13 04:35:34;;;;;;;6.28;1.40;;;15.30;99.90;;;;;;4985958;28;20212;-34
2023/07/13 04:38:00;;;;;;;5.40;1.30;;;15.30;99.90;;;;;;4989932;28;20065;-33
2023/07/13 04:40:27;;;;;;;4.75;1.15;;;15.40;99.90;;;;;;4979519;28;20111;-33
2023/07/13 04:42:53;;;;;;;5.32;1.33;;;15.40;99.90;;;;;;4981588;28;20050;-35
2023/07/13 04:45:19;;;;;;;7.20;1.40;;;15.40;99.90;;;;;;4978845;28;20057;-34
2023/07/13 04:47:45;;;;;;;9.73;1.65;;;15.40;99.90;;;;;;4990509;28;20160;-35
2023/07/13 04:50:15;;;;;;;10.30;1.73;;;15.40;99.90;;;;;;4979514;28;20149;-35
2023/07/13 04:52:42;;;;;;;5.93;1.33;;;15.50;99.90;;;;;;4991649;28;20065;-35
2023/07/13 04:55:08;;;;;;;7.13;1.63;;;15.50;99.90;;;;;;4989573;28;20071;-34
2023/07/13 04:57:34;;;;;;;6.72;1.92;;;15.60;99.90;;;;;;4983726;28;20140;-34
2023/07/13 05:00:01;;;;;;;6.60;1.50;;;15.60;99.90;;;;;;4989381;28;20054;-35
2023/07/13 05:02:28;;;;;;;7.82;1.70;;;15.60;99.90;;;;;;4984765;28;20064;-35
2023/07/13 05:04:53;;;;;;;6.10;1.60;;;15.60;99.90;;;;;;4982989;28;20603;-35
2023/07/13 05:07:19;;;;;;;5.07;1.38;;;15.70;99.90;;;;;;4982957;28;20057;-34
2023/07/13 05:09:45;;;;;;;5.90;1.23;;;15.70;99.90;;;;;;4978277;28;20582;-34
2023/07/13 05:12:11;;;;;;;4.55;1.55;;;15.70;99.90;;;;;;4978245;28;20136;-40
2023/07/13 05:14:36;;;;;;;5.18;1.48;;;15.80;99.90;;;;;;4979589;28;20077;-35
2023/07/13 05:17:02;;;;;;;8.75;1.70;;;15.80;99.90;;;;;;4980534;28;20776;-34
2023/07/13 05:19:28;;;;;;;7.93;2.08;;;15.80;99.90;;;;;;4983689;28;20045;-34
2023/07/13 05:21:54;;;;;;;9.68;1.95;;;15.80;99.90;;;;;;4976805;28;20424;-34
2023/07/13 05:24:19;;;;;;;8.50;2.28;;;15.90;99.90;;;;;;4980578;28;20051;-34
2023/07/13 05:26:45;;;;;;;6.60;1.70;;;15.90;99.90;;;;;;4986493;28;20125;-35
2023/07/13 05:29:11;;;;;;;5.20;1.42;;;16.00;99.90;;;;;;4988692;28;20081;-35
2023/07/13 05:31:37;;;;;;;9.10;1.58;;;16.10;99.90;;;;;;4984500;28;20046;-34
2023/07/13 05:34:03;;;;;;;6.57;2.17;;;16.20;99.90;;;;;;4982309;28;20054;-35
2023/07/13 05:36:28;;;;;;;8.85;2.40;;;16.20;99.90;;;;;;4996459;28;20072;-35
2023/07/13 05:38:54;;;;;;;6.50;1.50;;;16.20;99.90;;;;;;4995420;28;20045;-34
2023/07/13 05:41:20;;;;;;;8.95;1.80;;;16.30;99.90;;;;;;4991332;28;20160;-34
2023/07/13 05:43:45;;;;;;;7.90;1.75;;;16.30;99.90;;;;;;4993664;28;20121;-34
2023/07/13 05:46:11;;;;;;;10.80;2.20;;;16.40;99.90;;;;;;4983818;28;20054;-34
2023/07/13 05:48:37;;;;;;;5.45;1.30;;;16.40;99.90;;;;;;4984913;28;20054;-35
2023/07/13 05:51:02;;;;;;;7.07;1.52;;;16.50;99.90;;;;;;5003068;28;20125;-34
2023/07/13 05:53:28;;;;;;;6.50;1.48;;;16.60;99.90;;;;;;4993113;28;20520;-35
2023/07/13 05:55:54;;;;;;;7.50;1.60;;;16.70;99.90;;;;;;4994577;28;20073;-34
2023/07/13 05:58:21;;;;;;;6.53;1.63;;;16.90;99.90;;;;;;5000806;28;20103;-34
2023/07/13 06:00:47;;;;;;;7.47;1.60;;;17.10;99.90;;;;;;4990699;28;20053;-35
2023/07/13 06:03:14;;;;;;;4.75;1.35;;;17.20;99.90;;;;;;4986878;28;20119;-34
2023/07/13 06:05:40;;;;;;;5.65;1.35;;;17.30;99.90;;;;;;4988969;28;20058;-34
2023/07/13 06:08:07;;;;;;;4.90;1.35;;;17.40;99.90;;;;;;4974381;28;20607;-34
2023/07/13 06:10:34;;;;;;;3.65;1.40;;;17.50;99.90;;;;;;4978650;28;20687;-34
2023/07/13 06:12:59;;;;;;;7.53;1.20;;;17.50;99.90;;;;;;4984556;28;20078;-34
2023/07/13 06:15:25;;;;;;;5.13;1.20;;;17.60;99.90;;;;;;4976626;28;20144;-34
2023/07/13 06:17:51;;;;;;;6.75;1.50;;;17.60;99.90;;;;;;4987052;28;20104;-34
2023/07/13 06:20:16;;;;;;;7.78;1.90;;;17.60;99.90;;;;;;4992203;28;20102;-34
2023/07/13 06:22:42;;;;;;;7.22;2.05;;;17.60;99.90;;;;;;5000924;28;20056;-34
2023/07/13 06:25:08;;;;;;;8.00;1.98;;;17.60;99.90;;;;;;4997785;28;20054;-34
2023/07/13 06:27:34;;;;;;;5.55;1.48;;;17.70;99.90;;;;;;4987879;28;20491;-34
2023/07/13 06:30:00;;;;;;;6.35;1.90;;;17.70;99.90;;;;;;5003343;28;20108;-34
2023/07/13 06:32:26;;;;;;;5.43;1.90;;;17.80;99.90;;;;;;5010221;28;20483;-34
2023/07/13 06:34:51;;;;;;;5.57;1.33;;;17.80;99.90;;;;;;4989817;28;20058;-34
2023/07/13 06:37:18;;;;;;;7.68;1.80;;;17.80;99.90;;;;;;4996450;28;20057;-34
2023/07/13 06:39:44;;;;;;;6.78;2.00;;;17.80;99.90;;;;;;4986594;28;20104;-34
2023/07/13 06:42:10;;;;;;;7.63;1.58;;;17.90;99.90;;;;;;4989894;28;20057;-34
2023/07/13 06:44:36;;;;;;;7.70;1.70;;;17.90;99.90;;;;;;4993805;28;20412;-34
2023/07/13 06:47:02;;;;;;;4.97;1.75;;;17.80;99.90;;;;;;4990894;28;20046;-34
2023/07/13 06:49:28;;;;;;;7.00;2.00;;;17.80;99.90;;;;;;4991220;28;20079;-34
2023/07/13 06:51:54;;;;;;;3.97;1.40;;;17.70;99.90;;;;;;4998811;28;20050;-34
2023/07/13 06:54:20;;;;;;;8.48;1.98;;;17.80;99.90;;;;;;4991001;28;20309;-34
2023/07/13 06:56:45;;;;;;;5.15;1.65;;;17.80;99.90;;;;;;4994609;28;20510;-34
2023/07/13 06:59:11;;;;;;;3.63;1.33;;;17.80;99.90;;;;;;4986865;28;20034;-34
2023/07/13 07:01:37;;;;;;;7.57;1.85;;;17.80;99.90;;;;;;5003044;28;20459;-34
2023/07/13 07:04:03;;;;;;;7.70;2.35;;;17.80;99.90;;;;;;5002127;28;20054;-34
2023/07/13 07:06:29;;;;;;;11.85;1.90;;;17.90;99.90;;;;;;5001896;28;20046;-34
2023/07/13 07:08:55;;;;;;;7.63;2.45;;;17.90;99.90;;;;;;4996088;28;20127;-34
2023/07/13 07:11:25;;;;;;;5.72;2.20;;;18.00;99.90;;;;;;4992203;28;20382;-34
2023/07/13 07:13:52;;;;;;;12.10;3.15;;;18.00;99.90;;;;;;4997385;28;20054;-35
2023/07/13 07:16:19;;;;;;;8.48;2.05;;;18.10;99.90;;;;;;4994809;28;20069;-34
2023/07/13 07:18:45;;;;;;;6.05;2.50;;;18.10;99.90;;;;;;4997328;28;20056;-34
2023/07/13 07:21:11;;;;;;;13.57;3.00;;;18.20;99.90;;;;;;4997039;28;20500;-34
2023/07/13 07:23:37;;;;;;;8.82;2.45;;;18.30;99.90;;;;;;4992575;28;20100;-34
2023/07/13 07:26:03;;;;;;;7.70;2.40;;;18.30;99.90;;;;;;4987349;28;20046;-34
2023/07/13 07:28:29;;;;;;;10.93;3.17;;;18.40;99.90;;;;;;4992175;28;20053;-34
2023/07/13 07:30:57;;;;;;;10.07;2.47;;;18.40;99.90;;;;;;4995650;28;20061;-34
2023/07/13 07:33:23;;;;;;;9.48;2.70;;;18.50;99.90;;;;;;4994295;28;20389;-34
2023/07/13 07:35:49;;;;;;;10.63;2.50;;;18.60;99.90;;;;;;5000025;28;20650;-34
2023/07/13 07:38:15;;;;;;;10.40;2.88;;;18.60;99.90;;;;;;4991286;28;20081;-34
2023/07/13 07:40:42;;;;;;;10.48;2.47;;;18.70;99.90;;;;;;4996567;28;20070;-34
2023/07/13 07:43:09;;;;;;;11.43;3.15;;;18.70;99.90;;;;;;4999234;28;20076;-34
2023/07/13 07:45:35;;;;;;;9.93;2.85;;;18.80;99.90;;;;;;4982787;28;20050;-34
2023/07/13 07:48:01;;;;;;;9.35;2.53;;;18.80;99.90;;;;;;4999485;28;20470;-34
2023/07/13 07:50:28;;;;;;;11.07;3.13;;;18.80;99.90;;;;;;4989600;28;20496;-34
2023/07/13 07:52:55;;;;;;;6.90;2.42;;;18.90;99.90;;;;;;5000713;28;20045;-34
2023/07/13 07:55:22;;;;;;;7.07;2.80;;;19.10;99.90;;;;;;4991828;28;20050;-34
2023/07/13 07:57:48;;;;;;;7.35;2.25;;;19.20;99.90;;;;;;4994171;28;20050;-34
2023/07/13 08:00:15;;;;;;;9.10;2.47;;;19.20;99.90;;;;;;4981619;28;20145;-34
2023/07/13 08:02:41;;;;;;;9.85;3.00;;;19.20;99.90;;;;;;4989777;28;20076;-34
2023/07/13 08:05:08;;;;;;;8.07;3.25;;;19.20;99.90;;;;;;5000439;28;22074;-34
2023/07/13 08:07:35;;;;;;;7.28;2.40;;;19.20;99.90;;;;;;4990786;28;20077;-34
2023/07/13 08:10:01;;;;;;;8.15;2.45;;;19.30;99.90;;;;;;4989183;28;20058;-32
2023/07/13 08:12:27;;;;;;;10.43;2.65;;;19.30;99.90;;;;;;4991842;28;20042;-34
2023/07/13 08:15:00;;;;;;;5.97;2.75;;;19.40;99.90;;;;;;4993136;28;20454;-34
2023/07/13 08:17:26;;;;;;;11.75;2.70;;;19.50;99.90;;;;;;5009492;28;20113;-34
2023/07/13 08:19:52;;;;;;;8.23;2.95;;;19.50;99.90;;;;;;4983524;28;20054;-34
2023/07/13 08:22:18;;;;;;;6.55;2.60;;;19.50;99.90;;;;;;5012031;28;20570;-34
2023/07/13 08:24:43;;;;;;;8.52;2.67;;;19.50;99.90;;;;;;4993651;28;20057;-34
2023/07/13 08:27:11;;;;;;;6.95;2.47;;;19.50;99.90;;;;;;4998610;28;20485;-34
2023/07/13 08:29:37;;;;;;;7.60;2.60;;;19.50;99.90;;;;;;4998123;28;20501;-34
2023/07/13 08:32:06;;;;;;;11.13;3.00;;;19.40;99.90;;;;;;5012391;28;20092;-34
2023/07/13 08:34:32;;;;;;;4.82;0.70;;;19.30;99.90;;;;;;5002620;28;20495;-34
2023/07/13 08:36:57;;;;;;;4.10;0.85;;;18.80;99.90;;;;;;5007067;28;20104;-34
2023/07/13 08:39:23;;;;;;;6.72;1.10;;;18.50;99.90;;;;;;5001866;28;20046;-35
2023/07/13 08:41:54;;;;;;;4.95;1.35;;;17.90;99.90;;;;;;4996475;28;20052;-35
2023/07/13 08:44:36;;;;;;;4.85;2.00;;;17.60;99.90;;;;;;5006624;28;20057;-36
2023/07/13 08:47:02;;;;;;;4.33;1.17;;;17.00;99.90;;;;;;4986931;28;20054;-36
2023/07/13 08:49:29;;;;;;;3.72;1.20;;;16.50;99.90;;;;;;4994239;28;20050;-36
2023/07/13 08:52:12;;;;;;;2.95;1.40;;;16.10;99.90;;;;;;5003314;28;20307;-35
2023/07/13 08:54:42;;;;;;;2.25;1.17;;;15.90;99.90;;;;;;4999895;28;20042;-36
2023/07/13 08:57:21;;;;;;;4.07;1.10;;;15.80;99.90;;;;;;4983895;28;20150;-36
2023/07/13 08:59:47;;;;;;;3.30;1.10;;;15.70;99.90;;;;;;5007308;28;20045;-35
2023/07/13 09:02:16;;;;;;;5.40;0.85;;;15.70;99.90;;;;;;4997251;28;20131;-35
2023/07/13 09:04:45;;;;;;;3.10;1.00;;;15.70;99.90;;;;;;4985812;28;20556;-35
2023/07/13 09:07:29;;;;;;;2.60;0.90;;;15.60;99.90;;;;;;5010004;28;20511;-35
2023/07/13 09:10:12;;;;;;;3.47;1.00;;;15.50;99.90;;;;;;4994798;28;20557;-35
2023/07/13 09:12:53;;;;;;;5.85;1.30;;;15.40;99.90;;;;;;5002909;28;20140;-35
2023/07/13 09:15:36;;;;;;;3.35;0.80;;;15.40;99.90;;;;;;5003738;28;20530;-36
2023/07/13 09:18:11;;;;;;;1.48;0.60;;;15.50;99.90;;;;;;5003785;28;20069;-35
2023/07/13 09:20:44;;;;;;;2.38;0.95;;;15.60;99.90;;;;;;5005325;28;20515;-36
2023/07/13 09:23:17;;;;;;;1.48;0.60;;;15.80;99.90;;;;;;4994895;28;20050;-36
2023/07/13 09:25:46;;;;;;;7.18;1.20;;;15.90;99.90;;;;;;5003841;28;20107;-35
2023/07/13 09:28:19;;;;;;;4.18;1.13;;;16.00;99.90;;;;;;4994333;28;20073;-35
2023/07/13 09:30:44;;;;;;;;;;;16.10;99.90;;;;;;5002291;28;20495;-35
2023/07/13 09:33:10;;;;;;;5.70;1.48;;;16.10;99.90;;;;;;4999059;28;20008;-36
2023/07/13 09:35:36;;;;;;;4.78;1.30;;;16.10;99.90;;;;;;5012725;28;20057;-35
2023/07/13 09:38:13;;;;;;;2.38;1.33;;;16.20;99.90;;;;;;5010234;28;20046;-35
2023/07/13 09:40:43;;;;;;;4.63;1.73;;;16.40;99.90;;;;;;5010449;28;20556;-36
2023/07/13 09:43:13;;;;;;;3.35;1.42;;;16.50;99.90;;;;;;4994746;28;20082;-36
2023/07/13 09:45:39;;;;;;;6.50;1.98;;;16.70;99.90;;;;;;4998981;28;20136;-36
2023/07/13 09:48:16;;;;;;;3.55;1.55;;;16.90;99.90;;;;;;4998015;28;20585;-36
2023/07/13 09:50:43;;;;;;;3.67;1.67;;;17.10;99.90;;;;;;5012573;28;20058;-36
2023/07/13 09:53:16;;;;;;;6.95;2.35;;;17.50;99.90;;;;;;4999711;28;20444;-36
2023/07/13 09:55:45;;;;;;;7.63;2.58;;;17.90;99.90;;;;;;4999048;28;20060;-36
2023/07/13 09:58:15;;;;;;;5.63;2.70;;;18.20;99.90;;;;;;5005890;28;20045;-36
2023/07/13 10:00:43;;;;;;;8.50;3.13;;;18.60;99.90;;;;;;5003380;28;20058;-36
2023/07/13 10:03:54;;;;;;;4.88;2.58;;;18.80;99.90;;;;;;5003520;28;20089;-35
2023/07/13 10:06:21;;;;;;;6.55;2.85;;;19.30;99.90;;;;;;5003270;28;20077;-36
2023/07/13 10:08:49;;;;;;;5.38;2.55;;;19.60;99.90;;;;;;5003889;28;20065;-36
2023/07/13 10:11:20;;;;;;;5.93;2.28;;;19.80;99.90;;;;;;5015448;28;20084;-36
2023/07/13 10:13:53;;;;;;;6.65;2.35;;;19.90;99.90;;;;;;5003801;28;20571;-36
2023/07/13 10:16:20;;;;;;;7.18;2.55;;;19.90;99.90;;;;;;4997285;28;20141;-36
2023/07/13 10:18:53;;;;;;;6.03;1.95;;;19.80;99.90;;;;;;5003986;28;20537;-36
2023/07/13 10:21:21;;;;;;;4.35;1.67;;;19.70;99.90;;;;;;5003846;28;20515;-35
2023/07/13 10:24:05;;;;;;;5.20;1.90;;;19.40;99.90;;;;;;4997717;28;20074;-36
2023/07/13 10:26:34;;;;;;;5.10;2.08;;;19.20;99.90;;;;;;5001927;28;20077;-36
2023/07/13 10:29:07;;;;;;;4.43;2.30;;;19.00;99.90;;;;;;5009443;28;20484;-36
2023/07/13 10:31:41;;;;;;;5.05;2.05;;;18.80;99.90;;;;;;4996575;28;20049;-35
2023/07/13 10:34:12;;;;;;;4.70;2.10;;;18.60;99.90;;;;;;5001716;28;20042;-36
2023/07/13 10:36:47;;;;;;;2.55;1.08;;;18.40;99.90;;;;;;4997722;28;20046;-36
2023/07/13 10:39:23;;;;;;;4.55;1.15;;;18.20;99.90;;;;;;5021541;28;20042;-36
2023/07/13 10:41:55;;;;;;;3.65;1.20;;;17.90;99.90;;;;;;4992837;28;20046;-35
2023/07/13 10:44:32;;;;;;;4.30;1.10;;;17.70;99.90;;;;;;5006360;28;20595;-36
2023/07/13 10:47:03;;;;;;;3.63;1.20;;;17.50;99.90;;;;;;5002392;28;20054;-36
2023/07/13 10:49:31;;;;;;;3.83;1.30;;;17.50;99.90;;;;;;4994177;28;20046;-35
2023/07/13 10:51:57;;;;;;;4.85;1.20;;;17.50;99.90;;;;;;5001284;28;20510;-36
2023/07/13 10:54:42;;;;;;;2.72;0.90;;;17.60;99.90;;;;;;5008183;28;20055;-35
2023/07/13 10:57:16;;;;;;;1.50;0.88;;;17.60;99.90;;;;;;5003113;28;20050;-37
2023/07/13 10:59:45;;;;;;;3.25;1.58;;;17.60;99.90;;;;;;4989342;28;20054;-37
2023/07/13 11:02:28;;;;;;;3.55;1.20;;;17.80;99.90;;;;;;4985001;28;20493;-37
2023/07/13 11:04:57;;;;;;;4.63;1.20;;;18.10;99.90;;;;;;4992454;28;20491;-37
2023/07/13 11:07:29;;;;;;;4.57;1.00;;;18.40;99.90;;;;;;5007761;28;20072;-34
2023/07/13 11:10:03;;;;;;;3.88;1.10;;;18.70;99.90;;;;;;4997748;28;20053;-34
2023/07/13 11:12:50;;;;;;;4.53;1.40;;;18.70;99.90;;;;;;4995145;28;20484;-35
2023/07/13 11:15:33;;;;;;;3.22;1.30;;;18.80;99.90;;;;;;4980768;28;20669;-34
2023/07/13 11:18:04;;;;;;;3.38;1.52;;;18.90;99.90;;;;;;4987541;28;20061;-34
2023/07/13 11:20:36;;;;;;;2.75;1.50;;;19.10;99.90;;;;;;4994475;28;20418;-34
2023/07/13 11:23:17;;;;;;;4.93;1.90;;;19.20;99.90;;;;;;4979372;28;20128;-34
2023/07/13 11:25:43;;;;;;;3.45;1.80;;;19.50;99.90;;;;;;4980750;28;20058;-34
2023/07/13 11:28:12;;;;;;;5.15;1.67;;;19.70;99.90;;;;;;5004959;28;20261;-34
2023/07/13 11:31:06;;;;;;;4.43;1.55;;;19.90;99.90;;;;;;4992807;28;20173;-34
2023/07/13 11:33:38;;;;;;;5.38;1.80;;;20.10;99.90;;;;;;5005825;28;20525;-34
2023/07/13 11:36:06;;;;;;;3.53;1.20;;;20.20;99.90;;;;;;5000558;28;20065;-37
2023/07/13 11:38:32;;;;;;;2.75;1.00;;;20.40;99.90;;;;;;4998628;28;20104;-37
2023/07/13 11:41:03;;;;;;;3.58;1.00;;;20.50;99.90;;;;;;5009724;28;20054;-37
2023/07/13 11:43:30;;;;;;;3.45;1.00;;;20.60;99.90;;;;;;4990465;28;20053;-34
2023/07/13 11:45:55;;;;;;;2.28;1.00;;;20.60;99.90;;;;;;5006810;28;20042;-37
2023/07/13 11:48:31;;;;;;;3.25;1.40;;;20.60;99.90;;;;;;5005981;28;20059;-37
2023/07/13 11:51:05;;;;;;;9.68;1.10;;;20.70;99.90;;;;;;5011011;28;20503;-37
2023/07/13 11:53:47;;;;;;;3.15;0.70;;;20.70;99.90;;;;;;4994544;28;20077;-36
2023/07/13 11:56:14;;;;;;;3.40;0.85;;;20.80;99.90;;;;;;5001959;28;20459;-37
2023/07/13 11:58:40;;;;;;;3.05;0.80;;;20.90;99.90;;;;;;4993741;28;20057;-34
2023/07/13 12:01:06;;;;;;;3.15;1.10;;;21.00;99.90;;;;;;4995384;28;20052;-34
2023/07/13 12:03:34;;;;;;;3.55;0.80;;;21.10;99.90;;;;;;4985997;28;20782;-35
2023/07/13 12:06:00;;;;;;;3.92;0.70;;;21.20;99.90;;;;;;4999706;28;20150;-34
2023/07/13 12:08:27;;;;;;;4.65;0.57;;;21.20;99.90;;;;;;5007454;28;20061;-34
2023/07/13 12:10:59;;;;;;;3.13;0.70;;;21.40;99.90;;;;;;5001173;28;20050;-35
2023/07/13 12:13:28;;;;;;;4.43;1.38;;;21.40;99.90;;;;;;4992970;28;20046;-35
2023/07/13 12:15:54;;;;;;;3.95;0.70;;;21.50;99.90;;;;;;5001886;28;20060;-35
2023/07/13 12:18:23;;;;;;;2.53;0.70;;;21.50;99.90;;;;;;5005088;28;20496;-34
2023/07/13 12:20:52;;;;;;;4.50;0.98;;;21.40;99.90;;;;;;4994628;28;20064;-35
2023/07/13 12:23:27;;;;;;;2.17;0.60;;;21.50;99.90;;;;;;4997920;28;20503;-34
2023/07/13 12:25:53;;;;;;;1.52;0.60;;;21.60;99.90;;;;;;4993179;28;20058;-34
2023/07/13 12:28:38;;;;;;;4.40;1.00;;;21.70;99.90;;;;;;5001030;28;20138;-34
2023/07/13 12:31:22;;;;;;;4.43;0.70;;;21.80;99.90;;;;;;5003655;28;20045;-34
2023/07/13 12:33:49;;;;;;;4.75;1.63;;;21.80;99.90;;;;;;4986426;28;20450;-34
2023/07/13 12:36:15;;;;;;;3.08;0.90;;;21.70;99.90;;;;;;4995632;28;20500;-34
2023/07/13 12:38:46;;;;;;;1.95;0.80;;;21.90;99.90;;;;;;5000133;28;20064;-35
2023/07/13 12:41:12;;;;;;;2.40;0.60;;;21.90;99.90;;;;;;4992868;28;20050;-35
2023/07/13 12:43:38;;;;;;;2.67;0.80;;;21.90;99.90;;;;;;5006990;28;20060;-35
2023/07/13 12:46:20;;;;;;;2.33;0.60;;;21.90;99.90;;;;;;4990205;28;20128;-35
2023/07/13 12:48:50;;;;;;;1.80;0.60;;;21.70;99.90;;;;;;4991393;28;20054;-35
2023/07/13 12:51:16;;;;;;;3.20;0.50;;;21.70;99.90;;;;;;4992932;28;20054;-35